sensor_id;sensor_type;location;lat;lon;timestamp;P1;durP1;ratioP1;P2;durP2;ratioP2
8038;SDS011;4062;49.844;8.120;2023-05-18T00:01:53;0.50;;;0.40;;
8038;SDS011;4062;49.844;8.120;2023-05-18T00:03:55;0.70;;;0.57;;
8038;SDS011;4062;49.844;8.120;2023-05-18T00:05:57;0.70;;;0.70;;
8038;SDS011;4062;49.844;8.120;2023-05-18T00:08:03;0.60;;;0.40;;
8038;SDS011;4062;49.844;8.120;2023-05-18T00:10:05;0.60;;;0.60;;
8038;SDS011;4062;49.844;8.120;2023-05-18T00:12:07;0.90;;;0.90;;
8038;SDS011;4062;49.844;8.120;2023-05-18T00:14:09;0.60;;;0.50;;
8038;SDS011;4062;49.844;8.120;2023-05-18T00:16:10;0.63;;;0.50;;
8038;SDS011;4062;49.844;8.120;2023-05-18T00:18:14;0.77;;;0.77;;
8038;SDS011;4062;49.844;8.120;2023-05-18T00:20:16;0.87;;;0.87;;
8038;SDS011;4062;49.844;8.120;2023-05-18T00:22:21;0.97;;;0.73;;
8038;SDS011;4062;49.844;8.120;2023-05-18T00:24:22;0.80;;;0.47;;
8038;SDS011;4062;49.844;8.120;2023-05-18T00:26:24;0.60;;;0.40;;
8038;SDS011;4062;49.844;8.120;2023-05-18T00:28:27;0.50;;;0.50;;
8038;SDS011;4062;49.844;8.120;2023-05-18T00:30:31;0.70;;;0.50;;
8038;SDS011;4062;49.844;8.120;2023-05-18T00:32:32;0.50;;;0.40;;
8038;SDS011;4062;49.844;8.120;2023-05-18T00:34:36;1.00;;;0.70;;
8038;SDS011;4062;49.844;8.120;2023-05-18T00:36:38;0.63;;;0.63;;
8038;SDS011;4062;49.844;8.120;2023-05-18T00:38:40;0.60;;;0.60;;
8038;SDS011;4062;49.844;8.120;2023-05-18T00:40:42;0.50;;;0.50;;
8038;SDS011;4062;49.844;8.120;2023-05-18T00:42:45;0.50;;;0.50;;
8038;SDS011;4062;49.844;8.120;2023-05-18T00:44:46;1.47;;;0.70;;
8038;SDS011;4062;49.844;8.120;2023-05-18T00:46:47;0.50;;;0.40;;
8038;SDS011;4062;49.844;8.120;2023-05-18T00:48:49;0.50;;;0.43;;
8038;SDS011;4062;49.844;8.120;2023-05-18T00:50:51;0.80;;;0.50;;
8038;SDS011;4062;49.844;8.120;2023-05-18T00:52:53;0.50;;;0.40;;
8038;SDS011;4062;49.844;8.120;2023-05-18T00:54:55;0.60;;;0.50;;
8038;SDS011;4062;49.844;8.120;2023-05-18T00:56:58;0.90;;;0.70;;
8038;SDS011;4062;49.844;8.120;2023-05-18T00:59:01;0.90;;;0.60;;
8038;SDS011;4062;49.844;8.120;2023-05-18T01:01:03;0.50;;;0.30;;
8038;SDS011;4062;49.844;8.120;2023-05-18T01:03:05;1.10;;;0.70;;
8038;SDS011;4062;49.844;8.120;2023-05-18T01:05:10;0.70;;;0.70;;
8038;SDS011;4062;49.844;8.120;2023-05-18T01:07:12;0.53;;;0.53;;
8038;SDS011;4062;49.844;8.120;2023-05-18T01:09:15;0.60;;;0.40;;
8038;SDS011;4062;49.844;8.120;2023-05-18T01:13:37;0.50;;;0.40;;
8038;SDS011;4062;49.844;8.120;2023-05-18T01:15:50;0.67;;;0.53;;
8038;SDS011;4062;49.844;8.120;2023-05-18T01:22:37;0.87;;;0.50;;
8038;SDS011;4062;49.844;8.120;2023-05-18T01:24:49;0.60;;;0.50;;
8038;SDS011;4062;49.844;8.120;2023-05-18T01:26:58;0.80;;;0.80;;
8038;SDS011;4062;49.844;8.120;2023-05-18T01:29:02;1.17;;;1.00;;
8038;SDS011;4062;49.844;8.120;2023-05-18T01:31:05;0.50;;;0.40;;
8038;SDS011;4062;49.844;8.120;2023-05-18T01:33:10;0.60;;;0.60;;
8038;SDS011;4062;49.844;8.120;2023-05-18T01:35:13;0.57;;;0.57;;
8038;SDS011;4062;49.844;8.120;2023-05-18T01:37:14;0.57;;;0.57;;
8038;SDS011;4062;49.844;8.120;2023-05-18T01:39:16;0.70;;;0.70;;
8038;SDS011;4062;49.844;8.120;2023-05-18T01:41:27;0.50;;;0.50;;
8038;SDS011;4062;49.844;8.120;2023-05-18T01:43:32;0.47;;;0.37;;
8038;SDS011;4062;49.844;8.120;2023-05-18T01:45:37;0.50;;;0.50;;
8038;SDS011;4062;49.844;8.120;2023-05-18T01:47:43;1.53;;;0.70;;
8038;SDS011;4062;49.844;8.120;2023-05-18T01:50:21;0.50;;;0.40;;
8038;SDS011;4062;49.844;8.120;2023-05-18T01:52:18;0.57;;;0.57;;
8038;SDS011;4062;49.844;8.120;2023-05-18T01:54:24;0.70;;;0.70;;
8038;SDS011;4062;49.844;8.120;2023-05-18T01:56:26;0.50;;;0.40;;
8038;SDS011;4062;49.844;8.120;2023-05-18T01:58:30;0.50;;;0.40;;
8038;SDS011;4062;49.844;8.120;2023-05-18T02:00:32;0.50;;;0.40;;
8038;SDS011;4062;49.844;8.120;2023-05-18T02:02:35;0.90;;;0.50;;
8038;SDS011;4062;49.844;8.120;2023-05-18T02:04:37;0.60;;;0.57;;
8038;SDS011;4062;49.844;8.120;2023-05-18T02:06:38;0.50;;;0.40;;
8038;SDS011;4062;49.844;8.120;2023-05-18T02:08:42;0.60;;;0.53;;
8038;SDS011;4062;49.844;8.120;2023-05-18T02:10:43;0.50;;;0.40;;
8038;SDS011;4062;49.844;8.120;2023-05-18T02:12:45;0.53;;;0.50;;
8038;SDS011;4062;49.844;8.120;2023-05-18T02:14:52;0.70;;;0.70;;
8038;SDS011;4062;49.844;8.120;2023-05-18T02:16:54;0.60;;;0.50;;
8038;SDS011;4062;49.844;8.120;2023-05-18T02:18:56;0.50;;;0.40;;
8038;SDS011;4062;49.844;8.120;2023-05-18T02:20:59;0.70;;;0.50;;
8038;SDS011;4062;49.844;8.120;2023-05-18T02:23:01;1.03;;;0.50;;
8038;SDS011;4062;49.844;8.120;2023-05-18T02:25:02;0.60;;;0.60;;
8038;SDS011;4062;49.844;8.120;2023-05-18T02:27:04;0.50;;;0.43;;
8038;SDS011;4062;49.844;8.120;2023-05-18T02:29:06;0.73;;;0.50;;
8038;SDS011;4062;49.844;8.120;2023-05-18T02:31:11;0.77;;;0.77;;
8038;SDS011;4062;49.844;8.120;2023-05-18T02:33:13;0.80;;;0.80;;
8038;SDS011;4062;49.844;8.120;2023-05-18T02:35:14;0.60;;;0.60;;
8038;SDS011;4062;49.844;8.120;2023-05-18T02:37:17;1.07;;;1.07;;
8038;SDS011;4062;49.844;8.120;2023-05-18T02:39:19;0.50;;;0.50;;
8038;SDS011;4062;49.844;8.120;2023-05-18T02:41:20;0.60;;;0.50;;
8038;SDS011;4062;49.844;8.120;2023-05-18T02:43:22;0.63;;;0.63;;
8038;SDS011;4062;49.844;8.120;2023-05-18T02:45:24;0.60;;;0.60;;
8038;SDS011;4062;49.844;8.120;2023-05-18T02:47:26;0.50;;;0.50;;
8038;SDS011;4062;49.844;8.120;2023-05-18T02:49:28;0.60;;;0.50;;
8038;SDS011;4062;49.844;8.120;2023-05-18T02:51:29;0.97;;;0.80;;
8038;SDS011;4062;49.844;8.120;2023-05-18T02:53:31;0.50;;;0.50;;
8038;SDS011;4062;49.844;8.120;2023-05-18T02:55:38;0.60;;;0.60;;
8038;SDS011;4062;49.844;8.120;2023-05-18T02:57:47;0.47;;;0.40;;
8038;SDS011;4062;49.844;8.120;2023-05-18T02:59:54;2.10;;;0.80;;
8038;SDS011;4062;49.844;8.120;2023-05-18T03:01:56;1.53;;;0.60;;
8038;SDS011;4062;49.844;8.120;2023-05-18T03:03:59;0.50;;;0.40;;
8038;SDS011;4062;49.844;8.120;2023-05-18T03:06:01;0.50;;;0.40;;
8038;SDS011;4062;49.844;8.120;2023-05-18T03:08:04;0.50;;;0.40;;
8038;SDS011;4062;49.844;8.120;2023-05-18T03:10:06;0.60;;;0.40;;
8038;SDS011;4062;49.844;8.120;2023-05-18T03:12:08;0.50;;;0.50;;
8038;SDS011;4062;49.844;8.120;2023-05-18T03:14:09;0.50;;;0.40;;
8038;SDS011;4062;49.844;8.120;2023-05-18T03:16:11;0.50;;;0.50;;
8038;SDS011;4062;49.844;8.120;2023-05-18T03:18:12;0.50;;;0.50;;
8038;SDS011;4062;49.844;8.120;2023-05-18T03:20:15;0.50;;;0.40;;
8038;SDS011;4062;49.844;8.120;2023-05-18T03:22:16;1.70;;;0.50;;
8038;SDS011;4062;49.844;8.120;2023-05-18T03:24:18;0.50;;;0.50;;
8038;SDS011;4062;49.844;8.120;2023-05-18T03:26:22;0.50;;;0.40;;
8038;SDS011;4062;49.844;8.120;2023-05-18T03:28:26;0.80;;;0.80;;
8038;SDS011;4062;49.844;8.120;2023-05-18T03:30:29;0.40;;;0.40;;
8038;SDS011;4062;49.844;8.120;2023-05-18T03:32:32;0.50;;;0.40;;
8038;SDS011;4062;49.844;8.120;2023-05-18T03:34:36;0.50;;;0.40;;
8038;SDS011;4062;49.844;8.120;2023-05-18T03:36:38;0.50;;;0.50;;
8038;SDS011;4062;49.844;8.120;2023-05-18T03:38:43;0.80;;;0.50;;
8038;SDS011;4062;49.844;8.120;2023-05-18T03:40:45;0.73;;;0.50;;
8038;SDS011;4062;49.844;8.120;2023-05-18T03:42:47;0.60;;;0.60;;
8038;SDS011;4062;49.844;8.120;2023-05-18T03:44:48;0.50;;;0.50;;
8038;SDS011;4062;49.844;8.120;2023-05-18T03:46:51;0.50;;;0.50;;
8038;SDS011;4062;49.844;8.120;2023-05-18T03:48:52;0.50;;;0.50;;
8038;SDS011;4062;49.844;8.120;2023-05-18T03:50:58;0.60;;;0.60;;
8038;SDS011;4062;49.844;8.120;2023-05-18T03:53:08;0.50;;;0.50;;
8038;SDS011;4062;49.844;8.120;2023-05-18T03:55:10;0.60;;;0.40;;
8038;SDS011;4062;49.844;8.120;2023-05-18T03:57:12;0.50;;;0.40;;
8038;SDS011;4062;49.844;8.120;2023-05-18T03:59:13;0.53;;;0.40;;
8038;SDS011;4062;49.844;8.120;2023-05-18T04:01:16;0.60;;;0.40;;
8038;SDS011;4062;49.844;8.120;2023-05-18T04:03:18;0.50;;;0.40;;
8038;SDS011;4062;49.844;8.120;2023-05-18T04:05:20;0.50;;;0.40;;
8038;SDS011;4062;49.844;8.120;2023-05-18T04:07:22;0.50;;;0.40;;
8038;SDS011;4062;49.844;8.120;2023-05-18T04:09:23;0.50;;;0.50;;
8038;SDS011;4062;49.844;8.120;2023-05-18T04:11:25;1.27;;;0.50;;
8038;SDS011;4062;49.844;8.120;2023-05-18T04:13:26;0.53;;;0.50;;
8038;SDS011;4062;49.844;8.120;2023-05-18T04:15:28;0.70;;;0.50;;
8038;SDS011;4062;49.844;8.120;2023-05-18T04:17:30;0.60;;;0.50;;
8038;SDS011;4062;49.844;8.120;2023-05-18T04:19:33;0.50;;;0.30;;
8038;SDS011;4062;49.844;8.120;2023-05-18T04:21:35;0.50;;;0.40;;
8038;SDS011;4062;49.844;8.120;2023-05-18T04:23:37;0.50;;;0.40;;
8038;SDS011;4062;49.844;8.120;2023-05-18T04:25:40;0.50;;;0.40;;
8038;SDS011;4062;49.844;8.120;2023-05-18T04:27:43;0.50;;;0.40;;
8038;SDS011;4062;49.844;8.120;2023-05-18T04:29:45;0.50;;;0.40;;
8038;SDS011;4062;49.844;8.120;2023-05-18T04:31:49;1.43;;;0.50;;
8038;SDS011;4062;49.844;8.120;2023-05-18T04:33:52;0.50;;;0.40;;
8038;SDS011;4062;49.844;8.120;2023-05-18T04:35:57;0.80;;;0.40;;
8038;SDS011;4062;49.844;8.120;2023-05-18T04:38:04;0.50;;;0.40;;
8038;SDS011;4062;49.844;8.120;2023-05-18T04:40:06;0.60;;;0.60;;
8038;SDS011;4062;49.844;8.120;2023-05-18T04:42:16;0.50;;;0.40;;
8038;SDS011;4062;49.844;8.120;2023-05-18T04:44:23;0.50;;;0.50;;
8038;SDS011;4062;49.844;8.120;2023-05-18T04:46:30;0.40;;;0.30;;
8038;SDS011;4062;49.844;8.120;2023-05-18T04:48:34;0.50;;;0.47;;
8038;SDS011;4062;49.844;8.120;2023-05-18T04:50:37;0.50;;;0.40;;
8038;SDS011;4062;49.844;8.120;2023-05-18T04:52:40;0.53;;;0.53;;
8038;SDS011;4062;49.844;8.120;2023-05-18T04:54:48;0.60;;;0.30;;
8038;SDS011;4062;49.844;8.120;2023-05-18T04:56:51;0.60;;;0.60;;
8038;SDS011;4062;49.844;8.120;2023-05-18T04:58:52;0.70;;;0.40;;
8038;SDS011;4062;49.844;8.120;2023-05-18T05:00:58;0.70;;;0.33;;
8038;SDS011;4062;49.844;8.120;2023-05-18T05:03:01;0.50;;;0.40;;
8038;SDS011;4062;49.844;8.120;2023-05-18T05:05:02;0.50;;;0.50;;
8038;SDS011;4062;49.844;8.120;2023-05-18T05:07:04;0.50;;;0.30;;
8038;SDS011;4062;49.844;8.120;2023-05-18T05:09:05;0.50;;;0.50;;
8038;SDS011;4062;49.844;8.120;2023-05-18T05:11:07;0.40;;;0.30;;
8038;SDS011;4062;49.844;8.120;2023-05-18T05:13:08;0.70;;;0.70;;
8038;SDS011;4062;49.844;8.120;2023-05-18T05:15:09;0.40;;;0.40;;
8038;SDS011;4062;49.844;8.120;2023-05-18T05:17:11;0.50;;;0.50;;
8038;SDS011;4062;49.844;8.120;2023-05-18T05:19:13;0.50;;;0.40;;
8038;SDS011;4062;49.844;8.120;2023-05-18T05:21:14;0.50;;;0.40;;
8038;SDS011;4062;49.844;8.120;2023-05-18T05:23:16;0.83;;;0.40;;
8038;SDS011;4062;49.844;8.120;2023-05-18T05:25:19;0.50;;;0.33;;
8038;SDS011;4062;49.844;8.120;2023-05-18T05:27:21;0.50;;;0.43;;
8038;SDS011;4062;49.844;8.120;2023-05-18T05:29:25;0.60;;;0.50;;
8038;SDS011;4062;49.844;8.120;2023-05-18T05:31:27;0.50;;;0.40;;
8038;SDS011;4062;49.844;8.120;2023-05-18T05:33:30;0.40;;;0.30;;
8038;SDS011;4062;49.844;8.120;2023-05-18T05:35:32;0.50;;;0.40;;
8038;SDS011;4062;49.844;8.120;2023-05-18T05:37:33;0.50;;;0.40;;
8038;SDS011;4062;49.844;8.120;2023-05-18T05:39:34;0.50;;;0.40;;
8038;SDS011;4062;49.844;8.120;2023-05-18T05:41:37;0.50;;;0.40;;
8038;SDS011;4062;49.844;8.120;2023-05-18T05:43:38;0.53;;;0.50;;
8038;SDS011;4062;49.844;8.120;2023-05-18T05:45:40;0.60;;;0.40;;
8038;SDS011;4062;49.844;8.120;2023-05-18T05:47:42;0.50;;;0.30;;
8038;SDS011;4062;49.844;8.120;2023-05-18T05:49:44;0.53;;;0.53;;
8038;SDS011;4062;49.844;8.120;2023-05-18T05:51:46;0.50;;;0.40;;
8038;SDS011;4062;49.844;8.120;2023-05-18T05:53:48;0.50;;;0.40;;
8038;SDS011;4062;49.844;8.120;2023-05-18T05:55:51;0.57;;;0.50;;
8038;SDS011;4062;49.844;8.120;2023-05-18T05:57:52;0.70;;;0.40;;
8038;SDS011;4062;49.844;8.120;2023-05-18T05:59:54;0.53;;;0.47;;
8038;SDS011;4062;49.844;8.120;2023-05-18T06:01:55;0.50;;;0.40;;
8038;SDS011;4062;49.844;8.120;2023-05-18T06:03:57;0.50;;;0.40;;
8038;SDS011;4062;49.844;8.120;2023-05-18T06:05:59;0.60;;;0.57;;
8038;SDS011;4062;49.844;8.120;2023-05-18T06:08:02;0.60;;;0.60;;
8038;SDS011;4062;49.844;8.120;2023-05-18T06:10:04;0.50;;;0.50;;
8038;SDS011;4062;49.844;8.120;2023-05-18T06:12:06;0.50;;;0.40;;
8038;SDS011;4062;49.844;8.120;2023-05-18T06:14:08;0.50;;;0.30;;
8038;SDS011;4062;49.844;8.120;2023-05-18T06:16:10;0.50;;;0.50;;
8038;SDS011;4062;49.844;8.120;2023-05-18T06:18:11;0.50;;;0.40;;
8038;SDS011;4062;49.844;8.120;2023-05-18T06:20:12;0.90;;;0.33;;
8038;SDS011;4062;49.844;8.120;2023-05-18T06:22:14;0.50;;;0.40;;
8038;SDS011;4062;49.844;8.120;2023-05-18T06:24:26;0.50;;;0.40;;
8038;SDS011;4062;49.844;8.120;2023-05-18T06:26:41;0.50;;;0.40;;
8038;SDS011;4062;49.844;8.120;2023-05-18T06:29:12;0.43;;;0.30;;
8038;SDS011;4062;49.844;8.120;2023-05-18T06:31:27;0.40;;;0.30;;
8038;SDS011;4062;49.844;8.120;2023-05-18T06:33:54;0.50;;;0.40;;
8038;SDS011;4062;49.844;8.120;2023-05-18T06:35:56;0.60;;;0.47;;
8038;SDS011;4062;49.844;8.120;2023-05-18T06:37:57;0.73;;;0.50;;
8038;SDS011;4062;49.844;8.120;2023-05-18T06:39:59;0.50;;;0.40;;
8038;SDS011;4062;49.844;8.120;2023-05-18T06:42:00;0.43;;;0.40;;
8038;SDS011;4062;49.844;8.120;2023-05-18T06:44:06;0.40;;;0.30;;
8038;SDS011;4062;49.844;8.120;2023-05-18T06:46:17;0.50;;;0.40;;
8038;SDS011;4062;49.844;8.120;2023-05-18T06:48:22;0.50;;;0.40;;
8038;SDS011;4062;49.844;8.120;2023-05-18T06:50:26;0.50;;;0.50;;
8038;SDS011;4062;49.844;8.120;2023-05-18T06:52:28;0.40;;;0.30;;
8038;SDS011;4062;49.844;8.120;2023-05-18T06:54:30;0.50;;;0.43;;
8038;SDS011;4062;49.844;8.120;2023-05-18T06:56:32;0.60;;;0.40;;
8038;SDS011;4062;49.844;8.120;2023-05-18T06:58:34;0.60;;;0.50;;
8038;SDS011;4062;49.844;8.120;2023-05-18T07:00:38;0.50;;;0.40;;
8038;SDS011;4062;49.844;8.120;2023-05-18T07:02:40;0.50;;;0.40;;
8038;SDS011;4062;49.844;8.120;2023-05-18T07:04:43;0.50;;;0.40;;
8038;SDS011;4062;49.844;8.120;2023-05-18T07:06:45;0.50;;;0.40;;
8038;SDS011;4062;49.844;8.120;2023-05-18T07:08:46;0.50;;;0.40;;
8038;SDS011;4062;49.844;8.120;2023-05-18T07:10:47;0.57;;;0.53;;
8038;SDS011;4062;49.844;8.120;2023-05-18T07:12:49;0.53;;;0.50;;
8038;SDS011;4062;49.844;8.120;2023-05-18T07:14:51;0.50;;;0.50;;
8038;SDS011;4062;49.844;8.120;2023-05-18T07:16:52;0.70;;;0.60;;
8038;SDS011;4062;49.844;8.120;2023-05-18T07:18:55;0.43;;;0.33;;
8038;SDS011;4062;49.844;8.120;2023-05-18T07:20:57;0.50;;;0.40;;
8038;SDS011;4062;49.844;8.120;2023-05-18T07:22:59;1.53;;;0.50;;
8038;SDS011;4062;49.844;8.120;2023-05-18T07:25:00;0.50;;;0.40;;
8038;SDS011;4062;49.844;8.120;2023-05-18T07:27:02;0.70;;;0.50;;
8038;SDS011;4062;49.844;8.120;2023-05-18T07:29:03;1.80;;;0.70;;
8038;SDS011;4062;49.844;8.120;2023-05-18T07:31:05;0.77;;;0.50;;
8038;SDS011;4062;49.844;8.120;2023-05-18T07:33:06;0.50;;;0.40;;
8038;SDS011;4062;49.844;8.120;2023-05-18T07:35:08;0.60;;;0.60;;
8038;SDS011;4062;49.844;8.120;2023-05-18T07:37:09;0.50;;;0.40;;
8038;SDS011;4062;49.844;8.120;2023-05-18T07:39:10;1.43;;;0.60;;
8038;SDS011;4062;49.844;8.120;2023-05-18T07:41:18;0.90;;;0.90;;
8038;SDS011;4062;49.844;8.120;2023-05-18T07:43:21;6.83;;;1.57;;
8038;SDS011;4062;49.844;8.120;2023-05-18T07:45:23;13.33;;;1.47;;
8038;SDS011;4062;49.844;8.120;2023-05-18T07:47:27;17.37;;;1.93;;
8038;SDS011;4062;49.844;8.120;2023-05-18T07:49:29;22.90;;;2.20;;
8038;SDS011;4062;49.844;8.120;2023-05-18T07:51:30;6.53;;;1.97;;
8038;SDS011;4062;49.844;8.120;2023-05-18T07:53:31;8.53;;;1.47;;
8038;SDS011;4062;49.844;8.120;2023-05-18T07:55:34;5.67;;;1.60;;
8038;SDS011;4062;49.844;8.120;2023-05-18T07:57:35;2.30;;;1.43;;
8038;SDS011;4062;49.844;8.120;2023-05-18T07:59:37;3.50;;;0.90;;
8038;SDS011;4062;49.844;8.120;2023-05-18T08:01:38;7.63;;;1.50;;
8038;SDS011;4062;49.844;8.120;2023-05-18T08:03:40;8.50;;;1.80;;
8038;SDS011;4062;49.844;8.120;2023-05-18T08:05:42;5.90;;;1.53;;
8038;SDS011;4062;49.844;8.120;2023-05-18T08:07:43;2.30;;;1.30;;
8038;SDS011;4062;49.844;8.120;2023-05-18T08:09:45;2.53;;;1.47;;
8038;SDS011;4062;49.844;8.120;2023-05-18T08:11:46;4.30;;;1.30;;
8038;SDS011;4062;49.844;8.120;2023-05-18T08:13:50;2.67;;;1.10;;
8038;SDS011;4062;49.844;8.120;2023-05-18T08:15:51;6.60;;;1.93;;
8038;SDS011;4062;49.844;8.120;2023-05-18T08:17:52;5.13;;;1.27;;
8038;SDS011;4062;49.844;8.120;2023-05-18T08:19:54;1.87;;;1.50;;
8038;SDS011;4062;49.844;8.120;2023-05-18T08:21:56;2.10;;;1.30;;
8038;SDS011;4062;49.844;8.120;2023-05-18T08:23:57;2.10;;;1.10;;
8038;SDS011;4062;49.844;8.120;2023-05-18T08:25:58;1.03;;;0.60;;
8038;SDS011;4062;49.844;8.120;2023-05-18T08:28:02;2.93;;;1.23;;
8038;SDS011;4062;49.844;8.120;2023-05-18T08:30:11;4.57;;;1.03;;
8038;SDS011;4062;49.844;8.120;2023-05-18T08:32:13;4.43;;;1.10;;
8038;SDS011;4062;49.844;8.120;2023-05-18T08:34:14;1.70;;;0.90;;
8038;SDS011;4062;49.844;8.120;2023-05-18T08:36:16;2.00;;;0.90;;
8038;SDS011;4062;49.844;8.120;2023-05-18T08:38:17;2.20;;;0.80;;
8038;SDS011;4062;49.844;8.120;2023-05-18T08:40:19;1.67;;;1.07;;
8038;SDS011;4062;49.844;8.120;2023-05-18T08:42:22;1.90;;;0.83;;
8038;SDS011;4062;49.844;8.120;2023-05-18T08:44:39;1.80;;;0.93;;
8038;SDS011;4062;49.844;8.120;2023-05-18T08:46:45;6.00;;;1.70;;
8038;SDS011;4062;49.844;8.120;2023-05-18T08:48:50;1.40;;;0.87;;
8038;SDS011;4062;49.844;8.120;2023-05-18T08:50:53;1.53;;;1.00;;
8038;SDS011;4062;49.844;8.120;2023-05-18T08:52:59;0.87;;;0.80;;
8038;SDS011;4062;49.844;8.120;2023-05-18T08:55:04;0.70;;;0.70;;
8038;SDS011;4062;49.844;8.120;2023-05-18T08:57:09;2.03;;;1.10;;
8038;SDS011;4062;49.844;8.120;2023-05-18T08:59:17;1.33;;;0.80;;
8038;SDS011;4062;49.844;8.120;2023-05-18T09:01:28;1.30;;;1.20;;
8038;SDS011;4062;49.844;8.120;2023-05-18T09:03:31;1.97;;;1.00;;
8038;SDS011;4062;49.844;8.120;2023-05-18T09:05:33;1.03;;;0.93;;
8038;SDS011;4062;49.844;8.120;2023-05-18T09:07:35;0.70;;;0.60;;
8038;SDS011;4062;49.844;8.120;2023-05-18T09:09:40;5.50;;;0.90;;
8038;SDS011;4062;49.844;8.120;2023-05-18T09:11:42;3.03;;;0.83;;
8038;SDS011;4062;49.844;8.120;2023-05-18T09:13:47;1.13;;;0.70;;
8038;SDS011;4062;49.844;8.120;2023-05-18T09:15:50;0.90;;;0.70;;
8038;SDS011;4062;49.844;8.120;2023-05-18T09:17:51;1.33;;;0.70;;
8038;SDS011;4062;49.844;8.120;2023-05-18T09:19:53;0.70;;;0.53;;
8038;SDS011;4062;49.844;8.120;2023-05-18T09:21:54;0.60;;;0.60;;
8038;SDS011;4062;49.844;8.120;2023-05-18T09:23:58;1.87;;;0.67;;
8038;SDS011;4062;49.844;8.120;2023-05-18T09:26:00;0.90;;;0.60;;
8038;SDS011;4062;49.844;8.120;2023-05-18T09:28:05;0.80;;;0.80;;
8038;SDS011;4062;49.844;8.120;2023-05-18T09:30:08;2.80;;;0.60;;
8038;SDS011;4062;49.844;8.120;2023-05-18T09:32:10;0.80;;;0.80;;
8038;SDS011;4062;49.844;8.120;2023-05-18T09:34:14;1.33;;;0.97;;
8038;SDS011;4062;49.844;8.120;2023-05-18T09:36:24;2.97;;;1.17;;
8038;SDS011;4062;49.844;8.120;2023-05-18T09:38:26;1.00;;;1.00;;
8038;SDS011;4062;49.844;8.120;2023-05-18T09:40:28;0.63;;;0.63;;
8038;SDS011;4062;49.844;8.120;2023-05-18T09:42:35;1.43;;;0.83;;
8038;SDS011;4062;49.844;8.120;2023-05-18T09:44:37;2.90;;;0.83;;
8038;SDS011;4062;49.844;8.120;2023-05-18T09:46:39;0.90;;;0.90;;
8038;SDS011;4062;49.844;8.120;2023-05-18T09:48:41;1.67;;;0.90;;
8038;SDS011;4062;49.844;8.120;2023-05-18T09:50:48;1.03;;;0.93;;
8038;SDS011;4062;49.844;8.120;2023-05-18T09:52:51;0.90;;;0.70;;
8038;SDS011;4062;49.844;8.120;2023-05-18T09:54:58;0.70;;;0.60;;
8038;SDS011;4062;49.844;8.120;2023-05-18T09:57:01;0.93;;;0.70;;
8038;SDS011;4062;49.844;8.120;2023-05-18T09:59:09;2.00;;;0.63;;
8038;SDS011;4062;49.844;8.120;2023-05-18T10:01:12;1.53;;;0.87;;
8038;SDS011;4062;49.844;8.120;2023-05-18T10:03:20;0.53;;;0.53;;
8038;SDS011;4062;49.844;8.120;2023-05-18T10:05:23;1.00;;;0.80;;
8038;SDS011;4062;49.844;8.120;2023-05-18T10:07:26;1.43;;;0.80;;
8038;SDS011;4062;49.844;8.120;2023-05-18T10:09:27;0.93;;;0.80;;
8038;SDS011;4062;49.844;8.120;2023-05-18T10:11:32;0.80;;;0.77;;
8038;SDS011;4062;49.844;8.120;2023-05-18T10:13:35;0.83;;;0.60;;
8038;SDS011;4062;49.844;8.120;2023-05-18T10:15:37;0.50;;;0.50;;
8038;SDS011;4062;49.844;8.120;2023-05-18T10:17:45;0.60;;;0.50;;
8038;SDS011;4062;49.844;8.120;2023-05-18T10:19:49;0.67;;;0.67;;
8038;SDS011;4062;49.844;8.120;2023-05-18T10:21:54;0.80;;;0.80;;
8038;SDS011;4062;49.844;8.120;2023-05-18T10:24:04;0.80;;;0.80;;
8038;SDS011;4062;49.844;8.120;2023-05-18T10:26:08;0.90;;;0.67;;
8038;SDS011;4062;49.844;8.120;2023-05-18T10:28:10;0.97;;;0.60;;
8038;SDS011;4062;49.844;8.120;2023-05-18T10:30:13;0.60;;;0.60;;
8038;SDS011;4062;49.844;8.120;2023-05-18T10:32:17;2.83;;;0.87;;
8038;SDS011;4062;49.844;8.120;2023-05-18T10:34:20;0.60;;;0.40;;
8038;SDS011;4062;49.844;8.120;2023-05-18T10:36:23;0.50;;;0.43;;
8038;SDS011;4062;49.844;8.120;2023-05-18T10:38:29;0.60;;;0.47;;
8038;SDS011;4062;49.844;8.120;2023-05-18T10:40:39;0.80;;;0.80;;
8038;SDS011;4062;49.844;8.120;2023-05-18T10:42:43;0.80;;;0.60;;
8038;SDS011;4062;49.844;8.120;2023-05-18T10:44:48;0.90;;;0.70;;
8038;SDS011;4062;49.844;8.120;2023-05-18T10:46:52;1.80;;;1.07;;
8038;SDS011;4062;49.844;8.120;2023-05-18T10:48:54;0.77;;;0.77;;
8038;SDS011;4062;49.844;8.120;2023-05-18T10:50:57;1.90;;;0.43;;
8038;SDS011;4062;49.844;8.120;2023-05-18T10:52:59;0.57;;;0.57;;
8038;SDS011;4062;49.844;8.120;2023-05-18T10:55:02;0.60;;;0.50;;
8038;SDS011;4062;49.844;8.120;2023-05-18T10:57:05;0.60;;;0.60;;
8038;SDS011;4062;49.844;8.120;2023-05-18T10:59:10;0.50;;;0.50;;
8038;SDS011;4062;49.844;8.120;2023-05-18T11:01:14;0.70;;;0.70;;
8038;SDS011;4062;49.844;8.120;2023-05-18T11:03:16;0.70;;;0.70;;
8038;SDS011;4062;49.844;8.120;2023-05-18T11:05:24;1.00;;;0.63;;
8038;SDS011;4062;49.844;8.120;2023-05-18T11:07:26;0.60;;;0.53;;
8038;SDS011;4062;49.844;8.120;2023-05-18T11:09:29;0.57;;;0.53;;
8038;SDS011;4062;49.844;8.120;2023-05-18T11:11:53;0.80;;;0.70;;
8038;SDS011;4062;49.844;8.120;2023-05-18T11:14:00;1.00;;;0.60;;
8038;SDS011;4062;49.844;8.120;2023-05-18T11:16:03;0.60;;;0.60;;
8038;SDS011;4062;49.844;8.120;2023-05-18T11:18:12;0.90;;;0.63;;
8038;SDS011;4062;49.844;8.120;2023-05-18T11:20:15;0.80;;;0.53;;
8038;SDS011;4062;49.844;8.120;2023-05-18T11:22:16;0.70;;;0.53;;
8038;SDS011;4062;49.844;8.120;2023-05-18T11:24:18;0.83;;;0.50;;
8038;SDS011;4062;49.844;8.120;2023-05-18T11:26:28;0.77;;;0.40;;
8038;SDS011;4062;49.844;8.120;2023-05-18T11:28:32;1.83;;;0.70;;
8038;SDS011;4062;49.844;8.120;2023-05-18T11:32:48;0.60;;;0.60;;
8038;SDS011;4062;49.844;8.120;2023-05-18T11:34:51;0.50;;;0.50;;
8038;SDS011;4062;49.844;8.120;2023-05-18T11:36:53;0.60;;;0.60;;
8038;SDS011;4062;49.844;8.120;2023-05-18T11:39:02;0.80;;;0.80;;
8038;SDS011;4062;49.844;8.120;2023-05-18T11:41:06;0.60;;;0.50;;
8038;SDS011;4062;49.844;8.120;2023-05-18T11:43:07;0.67;;;0.67;;
8038;SDS011;4062;49.844;8.120;2023-05-18T11:45:16;0.97;;;0.60;;
8038;SDS011;4062;49.844;8.120;2023-05-18T11:47:18;0.70;;;0.50;;
8038;SDS011;4062;49.844;8.120;2023-05-18T11:49:20;0.60;;;0.60;;
8038;SDS011;4062;49.844;8.120;2023-05-18T11:51:24;1.17;;;0.60;;
8038;SDS011;4062;49.844;8.120;2023-05-18T11:53:27;0.63;;;0.50;;
8038;SDS011;4062;49.844;8.120;2023-05-18T11:55:36;0.60;;;0.60;;
8038;SDS011;4062;49.844;8.120;2023-05-18T11:57:47;0.80;;;0.50;;
8038;SDS011;4062;49.844;8.120;2023-05-18T11:59:55;0.50;;;0.50;;
8038;SDS011;4062;49.844;8.120;2023-05-18T12:01:58;0.60;;;0.60;;
8038;SDS011;4062;49.844;8.120;2023-05-18T12:04:02;0.60;;;0.50;;
8038;SDS011;4062;49.844;8.120;2023-05-18T12:06:04;0.70;;;0.40;;
8038;SDS011;4062;49.844;8.120;2023-05-18T12:08:07;1.73;;;0.90;;
8038;SDS011;4062;49.844;8.120;2023-05-18T12:10:09;0.50;;;0.40;;
8038;SDS011;4062;49.844;8.120;2023-05-18T12:12:12;0.60;;;0.50;;
8038;SDS011;4062;49.844;8.120;2023-05-18T12:14:19;1.00;;;0.83;;
8038;SDS011;4062;49.844;8.120;2023-05-18T12:16:21;0.60;;;0.40;;
8038;SDS011;4062;49.844;8.120;2023-05-18T12:18:26;0.50;;;0.50;;
8038;SDS011;4062;49.844;8.120;2023-05-18T12:20:28;0.50;;;0.40;;
8038;SDS011;4062;49.844;8.120;2023-05-18T12:22:30;0.80;;;0.40;;
8038;SDS011;4062;49.844;8.120;2023-05-18T12:24:31;0.73;;;0.70;;
8038;SDS011;4062;49.844;8.120;2023-05-18T12:26:32;0.83;;;0.50;;
8038;SDS011;4062;49.844;8.120;2023-05-18T12:28:34;0.50;;;0.50;;
8038;SDS011;4062;49.844;8.120;2023-05-18T12:30:36;0.60;;;0.60;;
8038;SDS011;4062;49.844;8.120;2023-05-18T12:32:38;0.70;;;0.70;;
8038;SDS011;4062;49.844;8.120;2023-05-18T12:34:50;0.50;;;0.50;;
8038;SDS011;4062;49.844;8.120;2023-05-18T12:36:51;0.67;;;0.67;;
8038;SDS011;4062;49.844;8.120;2023-05-18T12:38:53;0.80;;;0.60;;
8038;SDS011;4062;49.844;8.120;2023-05-18T12:40:54;0.60;;;0.60;;
8038;SDS011;4062;49.844;8.120;2023-05-18T12:42:59;0.60;;;0.43;;
8038;SDS011;4062;49.844;8.120;2023-05-18T12:45:02;0.50;;;0.40;;
8038;SDS011;4062;49.844;8.120;2023-05-18T12:47:04;0.53;;;0.53;;
8038;SDS011;4062;49.844;8.120;2023-05-18T12:49:06;0.83;;;0.57;;
8038;SDS011;4062;49.844;8.120;2023-05-18T12:51:07;0.63;;;0.60;;
8038;SDS011;4062;49.844;8.120;2023-05-18T12:53:20;0.60;;;0.40;;
8038;SDS011;4062;49.844;8.120;2023-05-18T12:55:23;0.63;;;0.63;;
8038;SDS011;4062;49.844;8.120;2023-05-18T12:57:28;0.50;;;0.40;;